Meteo Giornale » Osservazioni meteo Germania » Neuburg-Donau
ore: 20:20 - Osservazioni Meteo Neuburg-Donau
Lat. 48° 43' N Lon. 11° 13' E Alt. 380 metri s.l.m.
19 °C
Molto Nuvoloso
Temp. 24 Ore
11 °C
23 °C
Nord
3.7 Km/h
Dew point 9 °C
Umidità 52 %
Visibilità 10 Km
Il sole sorge alle ore 06:32
Il sole tramonta alle ore 19:58
| Data e Ora | Cielo e Fenomeni | T °C | DP °C | Um. % | Pres. hPa | Vis. km | Vento km/h | |
|---|---|---|---|---|---|---|---|---|
| Oggi h: 20:20 | Molto Nuvoloso | 19 | 9 | 52 | 1021 | 10 | N 3.7 | |
| Oggi h: 19:20 | Molto Nuvoloso | 23 | 8 | 38 | 1021 | 10 | O 7.4 | |
| Oggi h: 18:20 | Poco Nuvoloso | 23 | 8 | 38 | 1021 | 10 | O 13 | |
| Oggi h: 17:20 | Poco Nuvoloso | 23 | 9 | 40 | 1021 | 10 | O 13 | |
| Oggi h: 17:00 | Poco Nuvoloso | 23 | 9 | 40 | 1021 | 10 | O 13 | |
| Oggi h: 16:20 | Nuvoloso | 23 | 9 | 40 | 1021 | 10 | O/NO 11.1 | |
| Oggi h: 15:20 | Molto Nuvoloso | 22 | 10 | 46 | 1021 | 10 | O 9.3 | |
| Oggi h: 14:20 | Molto Nuvoloso | 22 | 11 | 49 | 1022 | 10 | NO 11.1 | |
| Oggi h: 13:20 | Molto Nuvoloso | 21 | 10 | 49 | 1022 | 10 | O/NO 11.1 | |
| Oggi h: 12:20 | Molto Nuvoloso | 20 | 11 | 56 | 1022 | 10 | O 13 | |
| Oggi h: 11:20 | Molto Nuvoloso | 20 | 11 | 56 | 1022 | 10 | SO 9.3 | |
| Oggi h: 10:20 | Nuvoloso | 19 | 11 | 59 | 1022 | 10 | O 7.4 | |
| Oggi h: 09:20 | Nuvoloso | 17 | 12 | 72 | 1022 | 10 | O 9.3 | |
| Oggi h: 08:20 | Nuvoloso | 15 | 11 | 76 | 1022 | 10 | N 3.7 | |
| Oggi h: 07:20 | Nuvoloso | 12 | 10 | 87 | 1022 | 10 | N 1.8 | |
| Oggi h: 06:20 | Poco Nuvoloso | 11 | 10 | 93 | 1022 | 10 | N 5.5 | |
| Oggi h: 05:20 | Poco Nuvoloso | 11 | 10 | 93 | 1021 | 10 | N 5.5 | |
| Oggi h: 04:20 | Nuvoloso | 12 | 10 | 87 | 1021 | 10 | N 3.7 | |
| Oggi h: 03:20 | Poco Nuvoloso | 13 | 10 | 81 | 1021 | 10 | N 0 | |
| Oggi h: 02:20 | Poco Nuvoloso | 13 | 11 | 87 | 1021 | 10 | N 3.7 | |
| Oggi h: 01:20 | Nuvoloso | 14 | 11 | 82 | 1021 | 10 | N 5.5 | |
| Oggi h: 00:20 | Sereno | 16 | 11 | 72 | 1021 | 10 | SO 9.3 | |
| Ieri h: 23:20 | Poco Nuvoloso | 17 | 10 | 63 | 1020 | 10 | O/SO 13 | |
| Ieri h: 22:20 | Poco Nuvoloso | 17 | 10 | 63 | 1020 | 10 | O 11.1 | |



